createdAt,value
2022-12-09T00:00:09.223Z,7.07
2022-12-09T00:02:37.404Z,5.47
2022-12-09T00:05:05.936Z,6.23
2022-12-09T00:07:35.931Z,6.10
2022-12-09T00:10:03.872Z,5.57
2022-12-09T00:12:31.901Z,5.37
2022-12-09T00:15:01.438Z,5.37
2022-12-09T00:17:29.337Z,5.53
2022-12-09T00:19:57.198Z,5.33
2022-12-09T00:22:27.315Z,5.73
2022-12-09T00:24:55.344Z,6.13
2022-12-09T00:27:23.239Z,5.57
2022-12-09T00:29:51.051Z,5.00
2022-12-09T00:32:20.299Z,4.73
2022-12-09T00:34:49.472Z,5.70
2022-12-09T00:37:17.496Z,4.97
2022-12-09T00:39:45.384Z,5.80
2022-12-09T00:42:13.415Z,5.40
2022-12-09T00:44:41.369Z,5.47
2022-12-09T00:47:09.392Z,5.13
2022-12-09T00:49:38.557Z,5.10
2022-12-09T00:52:06.520Z,5.60
2022-12-09T00:54:34.549Z,6.20
2022-12-09T00:57:02.522Z,5.23
2022-12-09T00:59:30.329Z,5.70
2022-12-09T01:01:58.304Z,6.27
2022-12-09T01:04:26.211Z,5.83
2022-12-09T01:06:55.667Z,5.83
2022-12-09T01:09:24.239Z,5.40
2022-12-09T01:11:52.144Z,5.33
2022-12-09T01:14:19.969Z,4.90
2022-12-09T01:16:48.162Z,5.03
2022-12-09T01:19:16.126Z,5.03
2022-12-09T01:21:43.936Z,5.57
2022-12-09T01:24:13.238Z,3.93
2022-12-09T01:26:41.118Z,4.17
2022-12-09T01:29:09.118Z,4.53
2022-12-09T01:31:36.941Z,4.40
2022-12-09T01:34:05.108Z,4.10
2022-12-09T01:36:33.170Z,4.70
2022-12-09T01:39:01.746Z,4.10
2022-12-09T01:41:30.927Z,4.93
2022-12-09T01:44:13.121Z,4.07
2022-12-09T01:46:41.918Z,4.57
2022-12-09T01:49:13.160Z,4.00
2022-12-09T01:51:41.781Z,5.30
2022-12-09T01:54:10.426Z,4.53
2022-12-09T01:56:42.036Z,4.27
2022-12-09T01:59:12.867Z,4.57
2022-12-09T02:01:41.422Z,5.07
2022-12-09T02:04:09.548Z,5.13
2022-12-09T02:06:38.468Z,5.30
2022-12-09T02:09:06.855Z,5.37
2022-12-09T02:11:50.470Z,4.87
2022-12-09T02:14:22.718Z,4.67
2022-12-09T02:16:57.457Z,5.03
2022-12-09T02:19:40.578Z,4.57
2022-12-09T02:22:10.755Z,4.67
2022-12-09T02:24:45.018Z,4.83
2022-12-09T02:27:19.109Z,4.80
2022-12-09T02:30:01.335Z,4.93
2022-12-09T02:32:49.187Z,4.43
2022-12-09T02:35:24.036Z,3.70
2022-12-09T02:37:55.973Z,4.10
2022-12-09T02:40:30.798Z,4.63
2022-12-09T02:43:01.257Z,4.23
2022-12-09T02:45:31.795Z,3.60
2022-12-09T02:48:04.368Z,4.80
2022-12-09T02:50:37.639Z,4.00
2022-12-09T02:53:10.469Z,4.03
2022-12-09T02:55:40.315Z,3.80
2022-12-09T02:58:08.158Z,5.07
2022-12-09T03:00:36.070Z,5.13
2022-12-09T03:03:07.487Z,4.70
2022-12-09T03:05:47.896Z,5.00
2022-12-09T03:08:24.731Z,4.13
2022-12-09T03:10:57.801Z,4.10
2022-12-09T03:13:39.403Z,4.50
2022-12-09T03:16:13.249Z,4.00
2022-12-09T03:18:46.476Z,4.17
2022-12-09T03:21:19.426Z,4.03
2022-12-09T03:23:47.842Z,4.07
2022-12-09T03:26:18.078Z,4.57
2022-12-09T03:28:50.254Z,5.73
2022-12-09T03:31:21.545Z,4.53
2022-12-09T03:33:53.741Z,5.10
2022-12-09T03:36:25.901Z,5.07
2022-12-09T03:38:56.208Z,5.47
2022-12-09T03:41:29.548Z,5.73
2022-12-09T03:44:01.152Z,5.20
2022-12-09T03:46:30.675Z,5.50
2022-12-09T03:48:59.256Z,5.13
2022-12-09T03:51:34.038Z,6.47
2022-12-09T03:54:07.564Z,6.57
2022-12-09T03:56:40.002Z,5.57
2022-12-09T03:59:12.489Z,6.03
2022-12-09T04:01:42.023Z,5.57
2022-12-09T04:04:10.211Z,6.03
2022-12-09T04:06:40.002Z,6.37
2022-12-09T04:09:08.255Z,5.80
2022-12-09T04:11:36.223Z,6.30
2022-12-09T04:14:04.445Z,6.63
2022-12-09T04:16:32.407Z,6.13
2022-12-09T04:19:00.191Z,6.77
2022-12-09T04:21:27.999Z,7.00
2022-12-09T04:23:57.110Z,6.40
2022-12-09T04:26:25.229Z,6.47
2022-12-09T04:28:53.282Z,6.97
2022-12-09T04:31:21.415Z,7.27
2022-12-09T04:33:50.116Z,7.50
2022-12-09T04:36:20.310Z,7.43
2022-12-09T04:38:48.548Z,7.37
2022-12-09T04:41:17.941Z,7.10
2022-12-09T04:43:46.109Z,6.33
2022-12-09T04:46:17.001Z,7.13
2022-12-09T04:48:45.797Z,7.40
2022-12-09T04:51:15.509Z,7.27
2022-12-09T04:53:43.680Z,7.27
2022-12-09T04:56:14.032Z,7.10
2022-12-09T04:58:44.943Z,7.33
2022-12-09T05:01:17.695Z,6.77
2022-12-09T05:03:49.696Z,7.53
2022-12-09T05:06:19.179Z,6.70
2022-12-09T05:08:47.418Z,6.67
2022-12-09T05:11:16.718Z,7.43
2022-12-09T05:13:46.580Z,8.00
2022-12-09T05:16:17.633Z,8.27
2022-12-09T05:18:47.255Z,8.07
2022-12-09T05:21:17.338Z,7.63
2022-12-09T05:23:45.711Z,6.83
2022-12-09T05:26:15.964Z,7.10
2022-12-09T05:28:44.321Z,7.70
2022-12-09T05:31:17.113Z,7.80
2022-12-09T05:33:46.026Z,7.33
2022-12-09T05:36:15.773Z,7.87
2022-12-09T05:38:44.389Z,7.37
2022-12-09T05:41:12.809Z,7.20
2022-12-09T05:43:41.671Z,7.27
2022-12-09T05:46:10.057Z,6.90
2022-12-09T05:48:39.821Z,8.47
2022-12-09T05:51:09.874Z,8.23
2022-12-09T05:53:37.958Z,7.70
2022-12-09T05:56:06.693Z,8.07
2022-12-09T05:58:34.925Z,8.57
2022-12-09T06:01:05.720Z,9.30
2022-12-09T06:03:34.119Z,7.67
2022-12-09T06:06:08.406Z,8.00
2022-12-09T06:08:36.428Z,8.03
2022-12-09T06:11:05.678Z,7.33
2022-12-09T06:13:33.593Z,7.90
2022-12-09T06:16:05.287Z,6.30
2022-12-09T06:18:33.771Z,7.80
2022-12-09T06:21:05.668Z,6.70
2022-12-09T06:23:35.526Z,6.03
2022-12-09T06:26:03.568Z,6.43
2022-12-09T06:28:31.976Z,7.80
2022-12-09T06:31:02.812Z,6.87
2022-12-09T06:33:54.143Z,6.97
2022-12-09T06:36:19.061Z,7.03
2022-12-09T06:38:48.385Z,6.47
2022-12-09T06:41:17.163Z,7.37
2022-12-09T06:43:45.415Z,6.97
2022-12-09T06:46:15.463Z,7.57
2022-12-09T06:48:43.869Z,6.07
2022-12-09T06:51:12.090Z,6.40
2022-12-09T06:53:40.278Z,6.37
2022-12-09T06:56:13.189Z,7.27
2022-12-09T06:58:42.281Z,6.77
2022-12-09T07:01:13.800Z,5.87
2022-12-09T07:03:42.877Z,6.27
2022-12-09T07:06:28.225Z,6.40
2022-12-09T07:08:58.132Z,5.93
2022-12-09T07:11:27.691Z,6.70
2022-12-09T07:13:56.256Z,6.87
2022-12-09T07:16:24.888Z,6.83
2022-12-09T07:18:53.024Z,6.63
2022-12-09T07:21:22.779Z,7.17
2022-12-09T07:23:51.225Z,5.57
2022-12-09T07:26:19.941Z,7.03
2022-12-09T07:28:50.537Z,6.03
2022-12-09T07:31:21.456Z,6.07
2022-12-09T07:33:50.842Z,6.23
2022-12-09T07:36:21.210Z,7.20
2022-12-09T07:38:49.601Z,6.40
2022-12-09T07:41:19.396Z,6.87
2022-12-09T07:43:49.686Z,6.43
2022-12-09T07:46:20.160Z,6.80
2022-12-09T07:48:49.373Z,6.73
2022-12-09T07:51:18.003Z,5.93
2022-12-09T07:53:46.942Z,6.37
2022-12-09T07:56:16.578Z,6.07
2022-12-09T07:58:47.680Z,7.30
2022-12-09T08:01:18.869Z,6.93
2022-12-09T08:03:47.745Z,6.13
2022-12-09T08:06:18.715Z,7.43
2022-12-09T08:08:47.657Z,7.40
2022-12-09T08:11:19.133Z,7.13
2022-12-09T08:13:47.664Z,7.20
2022-12-09T08:16:20.614Z,7.57
2022-12-09T08:18:49.183Z,6.93
2022-12-09T08:21:21.213Z,6.50
2022-12-09T08:23:50.088Z,7.03
2022-12-09T08:26:21.414Z,8.50
2022-12-09T08:28:51.887Z,7.63
2022-12-09T08:31:24.499Z,9.57
2022-12-09T08:33:53.849Z,8.50
2022-12-09T08:36:24.849Z,7.47
2022-12-09T08:38:53.820Z,8.50
2022-12-09T08:41:35.450Z,7.60
2022-12-09T08:44:05.518Z,7.40
2022-12-09T08:46:36.593Z,8.03
2022-12-09T08:49:06.355Z,7.87
2022-12-09T08:51:35.292Z,9.33
2022-12-09T08:54:04.390Z,8.80
2022-12-09T08:56:32.726Z,8.43
2022-12-09T08:59:00.724Z,8.70
2022-12-09T09:01:32.978Z,9.27
2022-12-09T09:04:06.175Z,8.70
2022-12-09T09:06:34.453Z,9.63
2022-12-09T09:09:03.102Z,9.33
2022-12-09T09:11:31.578Z,8.53
2022-12-09T09:14:00.283Z,10.00
2022-12-09T09:16:28.484Z,10.27
2022-12-09T09:18:57.376Z,9.03
2022-12-09T09:21:27.803Z,10.03
2022-12-09T09:23:56.354Z,8.20
2022-12-09T09:26:26.252Z,10.73
2022-12-09T09:28:55.855Z,10.33
2022-12-09T09:31:25.814Z,9.63
2022-12-09T09:33:54.244Z,8.57
2022-12-09T09:36:25.780Z,10.17
2022-12-09T09:38:56.681Z,8.40
2022-12-09T09:41:35.652Z,10.13
2022-12-09T09:44:04.579Z,9.93
2022-12-09T09:46:39.031Z,10.40
2022-12-09T09:49:11.349Z,11.00
2022-12-09T09:51:39.440Z,10.17
2022-12-09T09:54:14.069Z,11.43
2022-12-09T09:56:49.251Z,11.43
2022-12-09T09:59:24.643Z,10.83
2022-12-09T10:02:01.482Z,10.77
2022-12-09T10:04:39.824Z,12.70
2022-12-09T10:07:20.146Z,12.10
2022-12-09T10:09:56.990Z,12.17
2022-12-09T10:12:33.781Z,11.73
2022-12-09T10:15:10.566Z,11.03
2022-12-09T10:17:48.871Z,11.67
2022-12-09T10:20:20.176Z,11.27
2022-12-09T10:23:00.066Z,11.03
2022-12-09T10:25:32.130Z,11.60
2022-12-09T10:28:07.322Z,11.33
2022-12-09T10:30:41.785Z,12.37
2022-12-09T10:33:13.903Z,12.43
2022-12-09T10:35:43.260Z,12.77
2022-12-09T10:38:14.822Z,13.07
2022-12-09T10:40:55.106Z,11.50
2022-12-09T10:43:38.680Z,13.37
2022-12-09T10:46:19.510Z,11.27
2022-12-09T10:48:56.036Z,11.83
2022-12-09T10:51:28.391Z,11.87
2022-12-09T10:54:00.971Z,12.13
2022-12-09T10:56:34.124Z,12.13
2022-12-09T10:59:18.961Z,12.10
2022-12-09T11:01:51.785Z,11.13
2022-12-09T11:04:25.541Z,11.63
2022-12-09T11:06:59.693Z,11.07
2022-12-09T11:09:32.202Z,10.37
2022-12-09T11:12:03.414Z,12.00
2022-12-09T11:14:38.189Z,11.30
2022-12-09T11:17:16.716Z,10.67
2022-12-09T11:19:47.175Z,11.17
2022-12-09T11:22:29.288Z,9.63
2022-12-09T11:25:07.765Z,9.63
2022-12-09T11:27:37.459Z,9.67
2022-12-09T11:30:16.294Z,9.60
2022-12-09T11:32:56.724Z,10.23
2022-12-09T11:35:31.328Z,11.37
2022-12-09T11:38:05.850Z,11.47
2022-12-09T11:40:33.983Z,9.80
2022-12-09T11:43:03.957Z,10.53
2022-12-09T11:45:35.732Z,10.77
2022-12-09T11:48:27.540Z,9.67
2022-12-09T11:50:57.189Z,10.13
2022-12-09T11:53:29.879Z,10.07
2022-12-09T11:56:04.032Z,10.57
2022-12-09T11:58:44.120Z,10.17
2022-12-09T12:01:16.956Z,11.83
2022-12-09T12:03:51.325Z,10.20
2022-12-09T12:06:23.495Z,10.10
2022-12-09T12:08:55.511Z,9.60
2022-12-09T12:11:29.086Z,10.57
2022-12-09T12:14:04.739Z,10.23
2022-12-09T12:16:39.975Z,10.97
2022-12-09T12:19:16.432Z,9.80
2022-12-09T12:22:04.323Z,9.63
2022-12-09T12:24:46.931Z,10.20
2022-12-09T12:27:27.988Z,9.97
2022-12-09T12:30:01.482Z,10.23
2022-12-09T12:32:41.337Z,10.03
2022-12-09T12:35:28.157Z,10.20
2022-12-09T12:38:08.257Z,10.20
2022-12-09T12:40:42.477Z,10.50
2022-12-09T12:43:45.861Z,10.33
2022-12-09T12:46:29.550Z,9.20
2022-12-09T12:49:15.674Z,10.67
2022-12-09T12:51:54.655Z,10.67
2022-12-09T12:54:32.850Z,11.07
2022-12-09T12:57:09.863Z,10.33
2022-12-09T12:59:54.745Z,10.63
2022-12-09T13:02:36.560Z,11.33
2022-12-09T13:05:12.939Z,11.87
2022-12-09T13:07:46.682Z,11.20
2022-12-09T13:10:20.378Z,10.63
2022-12-09T13:12:58.575Z,11.00
2022-12-09T13:15:36.716Z,11.23
2022-12-09T13:18:13.405Z,10.60
2022-12-09T13:20:48.741Z,11.40
2022-12-09T13:23:30.207Z,10.70
2022-12-09T13:26:10.807Z,10.40
2022-12-09T13:28:46.881Z,10.57
2022-12-09T13:31:15.635Z,10.03
2022-12-09T13:33:57.315Z,10.80
2022-12-09T13:36:37.454Z,10.23
2022-12-09T13:39:06.310Z,10.03
2022-12-09T13:42:00.847Z,9.83
2022-12-09T13:44:36.046Z,9.90
2022-12-09T13:47:27.604Z,9.03
2022-12-09T13:50:01.068Z,9.43
2022-12-09T13:53:00.665Z,10.00
2022-12-09T13:55:35.530Z,9.97
2022-12-09T13:58:29.151Z,10.23
2022-12-09T14:01:05.030Z,8.47
2022-12-09T14:03:35.658Z,10.07
2022-12-09T14:06:18.361Z,7.70
2022-12-09T14:08:51.020Z,9.37
2022-12-09T14:11:42.220Z,9.57
2022-12-09T14:14:58.942Z,8.50
2022-12-09T14:18:01.527Z,8.43
2022-12-09T14:20:40.408Z,9.20
2022-12-09T14:23:20.178Z,7.50
2022-12-09T14:26:00.945Z,9.33
2022-12-09T14:28:55.179Z,8.90
2022-12-09T14:32:00.049Z,9.00
2022-12-09T14:34:37.370Z,7.90
2022-12-09T14:37:45.395Z,9.07
2022-12-09T14:40:26.412Z,9.00
2022-12-09T14:43:01.232Z,9.27
2022-12-09T14:45:34.336Z,8.60
2022-12-09T14:48:03.261Z,7.93
2022-12-09T14:50:31.046Z,7.60
2022-12-09T14:53:01.574Z,9.07
2022-12-09T14:55:34.174Z,8.53
2022-12-09T14:58:03.171Z,7.87
2022-12-09T15:00:34.511Z,8.50
2022-12-09T15:03:32.201Z,7.40
2022-12-09T15:05:58.846Z,8.23
2022-12-09T15:08:31.583Z,8.40
2022-12-09T15:11:02.866Z,7.57
2022-12-09T15:13:34.581Z,9.23
2022-12-09T15:16:02.828Z,8.63
2022-12-09T15:18:31.608Z,8.47
2022-12-09T15:21:01.311Z,7.77
2022-12-09T15:23:34.459Z,6.80
2022-12-09T15:26:06.945Z,7.30
2022-12-09T15:28:37.355Z,6.83
2022-12-09T15:31:07.276Z,7.37
2022-12-09T15:33:41.415Z,6.50
2022-12-09T15:36:13.720Z,6.67
2022-12-09T15:38:43.507Z,7.10
2022-12-09T15:41:30.071Z,7.40
2022-12-09T15:44:02.973Z,7.87
2022-12-09T15:46:32.743Z,7.20
2022-12-09T15:49:03.215Z,6.97
2022-12-09T15:51:32.640Z,8.07
2022-12-09T15:54:04.241Z,8.73
2022-12-09T15:56:36.809Z,8.60
2022-12-09T15:59:10.196Z,8.97
2022-12-09T16:01:38.536Z,8.97
2022-12-09T16:04:10.874Z,9.13
2022-12-09T16:06:39.187Z,9.10
2022-12-09T16:09:19.907Z,9.33
2022-12-09T16:11:51.063Z,8.90
2022-12-09T16:14:20.452Z,9.10
2022-12-09T16:16:50.875Z,9.03
2022-12-09T16:19:32.951Z,8.40
2022-12-09T16:22:03.588Z,7.67
2022-12-09T16:24:57.899Z,8.37
2022-12-09T16:27:25.337Z,7.67
2022-12-09T16:29:56.693Z,7.83
2022-12-09T16:32:26.944Z,8.00
2022-12-09T16:35:00.408Z,7.50
2022-12-09T16:37:36.090Z,7.53
2022-12-09T16:40:35.270Z,7.90
2022-12-09T16:43:23.650Z,8.33
2022-12-09T16:45:53.316Z,8.63
2022-12-09T16:48:23.580Z,8.67
2022-12-09T16:50:54.253Z,8.67
2022-12-09T16:53:25.358Z,9.03
2022-12-09T16:55:55.916Z,8.83
2022-12-09T16:58:25.023Z,9.20
2022-12-09T17:00:54.512Z,9.20
2022-12-09T17:03:37.593Z,11.07
2022-12-09T17:06:06.009Z,11.80
2022-12-09T17:08:33.799Z,12.63
2022-12-09T17:11:01.753Z,11.37
2022-12-09T17:13:30.867Z,12.17
2022-12-09T17:15:58.993Z,12.20
2022-12-09T17:18:27.713Z,11.50
2022-12-09T17:21:01.404Z,13.60
2022-12-09T17:23:31.451Z,9.87
2022-12-09T17:26:06.905Z,10.20
2022-12-09T17:28:36.475Z,12.03
2022-12-09T17:31:09.483Z,10.77
2022-12-09T17:33:37.687Z,10.83
2022-12-09T17:36:05.934Z,10.20
2022-12-09T17:38:34.264Z,9.43
2022-12-09T17:41:05.326Z,10.13
2022-12-09T17:43:33.258Z,9.97
2022-12-09T17:46:03.579Z,10.27
2022-12-09T17:48:32.282Z,10.40
2022-12-09T17:51:00.568Z,10.03
2022-12-09T17:53:28.433Z,9.67
2022-12-09T17:55:56.179Z,11.07
2022-12-09T17:58:25.692Z,11.53
2022-12-09T18:00:53.510Z,11.17
2022-12-09T18:03:53.734Z,10.33
2022-12-09T18:06:10.539Z,10.37
2022-12-09T18:08:38.873Z,10.97
2022-12-09T18:11:08.651Z,12.77
2022-12-09T18:13:37.658Z,13.83
2022-12-09T18:16:09.540Z,11.67
2022-12-09T18:18:39.225Z,12.90
2022-12-09T18:21:13.639Z,13.73
2022-12-09T18:23:43.310Z,12.73
2022-12-09T18:26:13.112Z,12.17
2022-12-09T18:28:41.771Z,12.60
2022-12-09T18:31:11.795Z,12.80
2022-12-09T18:33:42.940Z,12.70
2022-12-09T18:36:13.215Z,13.07
2022-12-09T18:38:42.233Z,13.30
2022-12-09T18:41:12.394Z,14.13
2022-12-09T18:43:41.965Z,12.80
2022-12-09T18:46:11.988Z,13.30
2022-12-09T18:48:42.055Z,12.43
2022-12-09T18:51:15.816Z,12.30
2022-12-09T18:53:43.841Z,13.40
2022-12-09T18:56:12.193Z,11.50
2022-12-09T18:59:04.655Z,13.17
2022-12-09T19:01:29.779Z,12.00
2022-12-09T19:04:01.217Z,13.63
2022-12-09T19:06:32.381Z,11.40
2022-12-09T19:09:02.339Z,12.10
2022-12-09T19:11:32.298Z,13.53
2022-12-09T19:14:01.341Z,11.40
2022-12-09T19:16:30.247Z,12.33
2022-12-09T19:19:07.109Z,11.47
2022-12-09T19:21:36.820Z,14.07
2022-12-09T19:24:04.776Z,14.40
2022-12-09T19:26:35.238Z,15.87
2022-12-09T19:29:05.763Z,12.70
2022-12-09T19:31:36.065Z,12.40
2022-12-09T19:34:07.460Z,15.57
2022-12-09T19:36:35.520Z,15.77
2022-12-09T19:39:06.065Z,13.97
2022-12-09T19:41:34.099Z,14.13
2022-12-09T19:44:02.939Z,12.60
2022-12-09T19:46:30.904Z,12.53
2022-12-09T19:48:59.544Z,11.73
2022-12-09T19:51:29.321Z,11.90
2022-12-09T19:54:00.708Z,11.40
2022-12-09T19:56:29.545Z,12.17
2022-12-09T19:58:57.944Z,10.70
2022-12-09T20:01:29.441Z,11.57
2022-12-09T20:04:05.270Z,11.23
2022-12-09T20:06:43.595Z,12.63
2022-12-09T20:09:13.975Z,11.00
2022-12-09T20:11:42.825Z,11.47
2022-12-09T20:14:13.852Z,11.60
2022-12-09T20:16:42.389Z,12.77
2022-12-09T20:19:10.942Z,11.13
2022-12-09T20:21:39.638Z,11.90
2022-12-09T20:24:10.336Z,11.87
2022-12-09T20:26:39.047Z,12.50
2022-12-09T20:29:09.434Z,13.43
2022-12-09T20:31:39.172Z,12.53
2022-12-09T20:34:09.341Z,14.00
2022-12-09T20:36:38.385Z,12.33
2022-12-09T20:39:12.334Z,13.67
2022-12-09T20:41:41.806Z,14.03
2022-12-09T20:44:11.025Z,13.40
2022-12-09T20:46:40.213Z,12.23
2022-12-09T20:49:08.371Z,12.50
2022-12-09T20:51:38.133Z,12.40
2022-12-09T20:54:06.472Z,12.53
2022-12-09T20:56:36.585Z,12.30
2022-12-09T20:59:04.696Z,12.30
2022-12-09T21:01:34.408Z,13.03
2022-12-09T21:04:03.665Z,12.93
2022-12-09T21:06:33.377Z,11.90
2022-12-09T21:09:01.910Z,13.60
2022-12-09T21:11:29.830Z,12.37
2022-12-09T21:14:00.967Z,12.30
2022-12-09T21:16:31.973Z,12.77
2022-12-09T21:19:02.227Z,11.83
2022-12-09T21:21:32.606Z,13.77
2022-12-09T21:24:00.700Z,12.27
2022-12-09T21:26:29.065Z,11.33
2022-12-09T21:28:57.507Z,11.53
2022-12-09T21:31:28.612Z,12.03
2022-12-09T21:33:58.889Z,11.53
2022-12-09T21:36:28.703Z,10.97
2022-12-09T21:38:56.891Z,11.30
2022-12-09T21:41:28.600Z,11.27
2022-12-09T21:43:57.908Z,10.90
2022-12-09T21:46:28.851Z,11.73
2022-12-09T21:49:03.306Z,10.87
2022-12-09T21:51:32.406Z,11.83
2022-12-09T21:54:00.419Z,10.63
2022-12-09T21:56:31.282Z,10.53
2022-12-09T21:59:00.201Z,11.27
2022-12-09T22:01:31.417Z,10.07
2022-12-09T22:04:00.725Z,10.33
2022-12-09T22:06:29.882Z,10.47
2022-12-09T22:09:01.508Z,11.43
2022-12-09T22:11:34.610Z,10.53
2022-12-09T22:14:03.557Z,10.53
2022-12-09T22:16:34.297Z,10.93
2022-12-09T22:19:03.778Z,10.87
2022-12-09T22:21:33.771Z,11.43
2022-12-09T22:24:03.187Z,11.60
2022-12-09T22:26:31.359Z,9.90
2022-12-09T22:29:00.452Z,10.57
2022-12-09T22:31:30.409Z,11.17
2022-12-09T22:34:02.911Z,11.63
2022-12-09T22:36:30.768Z,11.73
2022-12-09T22:38:58.592Z,12.90
2022-12-09T22:41:29.767Z,11.50
2022-12-09T22:43:58.595Z,12.07
2022-12-09T22:46:29.005Z,10.97
2022-12-09T22:48:58.063Z,11.77
2022-12-09T22:51:29.286Z,12.27
2022-12-09T22:53:58.515Z,13.23
2022-12-09T22:56:27.768Z,12.77
2022-12-09T22:58:55.849Z,13.30
2022-12-09T23:01:28.698Z,13.00
2022-12-09T23:03:57.932Z,12.23
2022-12-09T23:06:31.344Z,13.13
2022-12-09T23:08:59.844Z,11.93
2022-12-09T23:11:29.264Z,12.17
2022-12-09T23:13:59.232Z,11.50
2022-12-09T23:16:28.205Z,11.47
2022-12-09T23:18:57.613Z,12.40
2022-12-09T23:21:28.419Z,11.20
2022-12-09T23:23:57.528Z,13.07
2022-12-09T23:26:27.020Z,11.70
2022-12-09T23:28:56.817Z,12.17
2022-12-09T23:31:26.844Z,11.20
2022-12-09T23:33:55.616Z,12.40
2022-12-09T23:36:26.898Z,11.43
2022-12-09T23:38:56.258Z,12.00
2022-12-09T23:41:24.966Z,12.53
2022-12-09T23:43:53.803Z,11.83
2022-12-09T23:46:23.399Z,10.90
2022-12-09T23:48:53.511Z,11.07
2022-12-09T23:51:22.872Z,11.53
2022-12-09T23:53:52.152Z,11.23
2022-12-09T23:56:23.569Z,11.50
2022-12-09T23:58:55.150Z,11.63
